Time;durP1;ratioP1;P1;durP2;ratioP2;P2;SDS_P1;SDS_P2;PMS_P1;PMS_P2;Temp;Humidity;BMP_temperature;BMP_pressure;BME280_temperature;BME280_humidity;BME280_pressure;Samples;Min_cycle;Max_cycle;Signal;HPM_P1;HPM_P2
2022/01/16 00:04:34;;;;;;;175.07;43.37;;;;;;;-2.21;100.00;100942.56;5138508;22;20784;-82
2022/01/16 00:07:03;;;;;;;184.97;45.20;;;;;;;-2.19;100.00;100940.75;5128092;22;25253;-83
2022/01/16 00:09:34;;;;;;;174.83;43.23;;;;;;;-2.20;100.00;100949.50;5106036;22;21949;-83
2022/01/16 00:12:05;;;;;;;162.63;41.93;;;;;;;-2.21;100.00;100950.38;5115068;22;20207;-83
2022/01/16 00:14:34;;;;;;;155.03;39.10;;;;;;;-2.16;100.00;100930.22;5176437;22;20721;-83
2022/01/16 00:17:00;;;;;;;147.37;38.77;;;;;;;-2.27;100.00;100931.50;5088220;22;22199;-81
2022/01/16 00:19:27;;;;;;;150.43;37.67;;;;;;;-2.26;100.00;100944.47;5055198;22;20287;-81
2022/01/16 00:21:54;;;;;;;137.87;37.23;;;;;;;-2.22;100.00;100946.09;5091843;22;21868;-82
2022/01/16 00:24:21;;;;;;;138.83;38.40;;;;;;;-2.19;100.00;100951.19;5091595;22;25591;-88
2022/01/16 00:26:47;;;;;;;140.87;37.03;;;;;;;-2.14;100.00;100938.84;5073481;22;22198;-84
2022/01/16 00:29:14;;;;;;;141.70;40.37;;;;;;;-2.27;100.00;100929.75;5121189;22;22027;-83
2022/01/16 00:31:41;;;;;;;136.67;39.77;;;;;;;-2.37;100.00;100929.19;5113142;22;20597;-82
2022/01/16 00:34:09;;;;;;;129.23;36.93;;;;;;;-2.31;100.00;100932.53;5122771;22;20209;-80
2022/01/16 00:36:36;;;;;;;133.83;37.23;;;;;;;-2.28;100.00;100928.03;5093119;23;20206;-87
2022/01/16 00:39:04;;;;;;;140.50;38.17;;;;;;;-2.25;100.00;100940.13;5102037;22;20641;-85
2022/01/16 00:41:31;;;;;;;144.40;37.67;;;;;;;-2.07;100.00;100943.88;5105492;22;22237;-86
2022/01/16 00:43:58;;;;;;;123.47;35.60;;;;;;;-2.13;100.00;100940.56;5097311;22;21051;-85
2022/01/16 00:46:25;;;;;;;136.33;37.93;;;;;;;-2.26;100.00;100936.66;5086713;23;20604;-85
2022/01/16 00:48:51;;;;;;;127.47;35.37;;;;;;;-2.21;100.00;100916.50;5087088;22;20214;-84
2022/01/16 00:51:18;;;;;;;123.37;35.17;;;;;;;-2.22;100.00;100914.81;5085586;22;20268;-85
2022/01/16 00:53:45;;;;;;;124.93;36.23;;;;;;;-2.37;100.00;100931.78;5126435;22;20268;-85
2022/01/16 00:56:12;;;;;;;121.97;34.53;;;;;;;-2.43;100.00;100938.97;5104596;22;20207;-80
2022/01/16 00:58:39;;;;;;;120.00;35.13;;;;;;;-2.33;100.00;100953.41;5107518;22;20631;-82
2022/01/16 01:01:09;;;;;;;121.47;32.70;;;;;;;-2.29;100.00;100965.44;5145719;22;20228;-84
2022/01/16 01:03:36;;;;;;;120.30;34.20;;;;;;;-2.36;100.00;100959.56;5144015;23;20369;-87
2022/01/16 01:06:04;;;;;;;112.87;32.33;;;;;;;-2.43;100.00;100963.28;5080524;23;20226;-82
2022/01/16 01:08:30;;;;;;;122.30;34.07;;;;;;;-2.47;100.00;100963.44;5093688;22;20271;-84
2022/01/16 01:11:01;;;;;;;107.90;30.13;;;;;;;-2.47;100.00;100938.22;5106418;23;20207;-83
2022/01/16 01:16:02;;;;;;;116.93;31.60;;;;;;;-2.59;100.00;100909.97;5107316;22;20198;-84
2022/01/16 01:18:31;;;;;;;102.37;29.87;;;;;;;-2.67;100.00;100932.78;5132879;22;20270;-84
2022/01/16 01:20:59;;;;;;;104.37;31.87;;;;;;;-2.73;100.00;100913.00;5090193;22;22206;-83
2022/01/16 01:23:26;;;;;;;108.53;31.20;;;;;;;-2.80;100.00;100904.53;5085703;23;20539;-81
2022/01/16 01:25:53;;;;;;;109.57;31.53;;;;;;;-2.67;100.00;100922.38;5106872;22;22042;-83
2022/01/16 01:28:19;;;;;;;109.13;31.43;;;;;;;-2.67;100.00;100902.41;5113431;23;21578;-82
2022/01/16 01:30:46;;;;;;;108.03;32.43;;;;;;;-2.72;100.00;100883.44;5104640;22;20333;-80
2022/01/16 01:33:14;;;;;;;128.17;34.50;;;;;;;-2.68;100.00;100902.44;5089426;22;20313;-80
2022/01/16 01:35:41;;;;;;;109.07;32.67;;;;;;;-2.62;100.00;100895.28;5076299;22;20275;-80
2022/01/16 01:38:09;;;;;;;123.70;35.37;;;;;;;-2.62;100.00;100895.28;5142794;22;20207;-77
2022/01/16 01:40:37;;;;;;;116.70;33.50;;;;;;;-2.79;100.00;100924.47;5095173;22;20213;-80
2022/01/16 01:51:15;;;;;;;131.57;34.60;;;;;;;-2.74;100.00;100760.22;5093521;22;20287;-80
2022/01/16 01:53:44;;;;;;;123.67;36.23;;;;;;;-2.75;100.00;100779.38;5118489;22;20206;-86
2022/01/16 01:56:13;;;;;;;122.70;34.83;;;;;;;-2.80;100.00;100765.66;5124725;22;20205;-84
2022/01/16 01:58:40;;;;;;;121.70;36.03;;;;;;;-2.81;100.00;100767.41;5089329;23;22924;-85
2022/01/16 02:01:07;;;;;;;122.30;34.23;;;;;;;-2.78;100.00;100774.28;5096986;22;20294;-88
2022/01/16 02:06:18;;;;;;;109.97;34.77;;;;;;;-2.74;100.00;100830.53;5089411;23;21148;-80
2022/01/16 02:08:51;;;;;;;116.90;34.47;;;;;;;-2.65;100.00;100845.88;5091411;22;20290;-82
2022/01/16 02:11:19;;;;;;;105.97;31.80;;;;;;;-2.69;100.00;100852.09;5068816;22;20974;-82
2022/01/16 02:14:07;;;;;;;99.30;30.43;;;;;;;-2.71;100.00;100859.13;5059032;22;22302;-86
2022/01/16 02:28:22;;;;;;;89.83;28.50;;;;;;;-2.82;100.00;100838.63;5218881;22;22028;-88
2022/01/16 02:36:16;;;;;;;89.53;28.70;;;;;;;-2.84;100.00;100844.78;5163356;23;20247;-88
2022/01/16 02:38:45;;;;;;;99.83;30.67;;;;;;;-2.77;100.00;100839.31;5173751;22;20207;-86
2022/01/16 02:41:12;;;;;;;89.87;30.60;;;;;;;-2.88;100.00;100856.19;5137287;22;20362;-82
2022/01/16 02:43:45;;;;;;;95.20;30.73;;;;;;;-2.96;100.00;100864.25;5116565;22;20208;-88
2022/01/16 02:48:48;;;;;;;107.00;31.63;;;;;;;-2.91;100.00;100861.50;5090666;22;23591;-83
2022/01/16 02:51:17;;;;;;;84.50;29.00;;;;;;;-2.92;100.00;100849.41;5093649;22;20205;-85
2022/01/16 02:53:44;;;;;;;97.50;30.47;;;;;;;-2.92;100.00;100839.81;5058062;23;20309;-81
2022/01/16 02:56:12;;;;;;;98.83;29.70;;;;;;;-2.92;100.00;100865.03;5105008;22;20223;-82
2022/01/16 02:58:39;;;;;;;108.87;30.77;;;;;;;-2.95;100.00;100850.34;5124853;22;20582;-83
2022/01/16 03:01:07;;;;;;;88.00;29.20;;;;;;;-2.95;100.00;100837.34;5079867;22;21292;-84
2022/01/16 03:03:34;;;;;;;95.90;29.13;;;;;;;-2.94;100.00;100849.44;5061109;22;20271;-80
2022/01/16 03:06:00;;;;;;;96.43;29.93;;;;;;;-2.91;100.00;100848.47;5097133;22;20202;-77
2022/01/16 03:08:27;;;;;;;80.93;27.07;;;;;;;-3.04;100.00;100846.28;5114401;22;20279;-77
2022/01/16 03:11:12;;;;;;;89.87;30.93;;;;;;;-3.01;100.00;100845.31;5120539;22;20210;-80
2022/01/16 03:13:46;;;;;;;81.60;27.33;;;;;;;-3.00;100.00;100847.91;5104428;22;20306;-80
2022/01/16 03:16:15;;;;;;;93.53;31.07;;;;;;;-3.04;100.00;100850.63;5089787;23;20208;-79
2022/01/16 03:24:12;;;;;;;89.27;29.93;;;;;;;-2.91;100.00;100835.47;5125367;22;20207;-77
2022/01/16 03:26:38;;;;;;;94.00;30.07;;;;;;;-2.93;100.00;100832.91;5078588;22;20202;-79
2022/01/16 03:29:05;;;;;;;102.63;31.67;;;;;;;-2.98;100.00;100830.44;5120250;22;21230;-78
2022/01/16 03:31:34;;;;;;;107.97;33.50;;;;;;;-2.97;100.00;100831.31;5086659;22;20203;-77
2022/01/16 03:34:01;;;;;;;115.63;34.10;;;;;;;-2.98;100.00;100817.41;5118828;22;20206;-78
2022/01/16 03:36:27;;;;;;;115.07;35.40;;;;;;;-2.99;100.00;100813.13;5106597;22;20203;-78
2022/01/16 03:38:54;;;;;;;115.47;35.03;;;;;;;-2.98;100.00;100809.63;5099992;22;20998;-80
2022/01/16 03:41:21;;;;;;;110.93;34.47;;;;;;;-2.97;100.00;100808.72;5096314;22;20208;-79
2022/01/16 03:43:47;;;;;;;120.80;35.80;;;;;;;-2.91;100.00;100807.66;5092815;22;21595;-77
2022/01/16 03:46:14;;;;;;;119.57;36.10;;;;;;;-2.92;100.00;100800.78;5145213;22;21632;-79
2022/01/16 03:48:41;;;;;;;104.47;36.00;;;;;;;-2.84;100.00;100790.94;5116653;22;25462;-79
2022/01/16 03:51:07;;;;;;;105.27;32.77;;;;;;;-2.94;100.00;100796.53;5115950;22;21749;-79
2022/01/16 03:53:34;;;;;;;105.27;32.40;;;;;;;-3.04;100.00;100803.78;5102813;22;20204;-78
2022/01/16 03:56:00;;;;;;;98.57;31.00;;;;;;;-3.04;100.00;100804.63;5096839;22;20203;-80
2022/01/16 03:58:27;;;;;;;99.87;30.67;;;;;;;-3.01;100.00;100798.47;5077379;22;20209;-80
2022/01/16 04:00:53;;;;;;;102.00;31.67;;;;;;;-2.96;100.00;100796.56;5086338;22;20285;-78
2022/01/16 04:03:20;;;;;;;97.70;31.60;;;;;;;-2.99;100.00;100791.47;5087954;22;20223;-79
2022/01/16 04:05:47;;;;;;;102.97;31.33;;;;;;;-2.94;100.00;100796.53;5122027;22;20206;-78
2022/01/16 04:08:13;;;;;;;90.60;30.80;;;;;;;-2.88;100.00;100786.75;5103344;22;20203;-80
2022/01/16 04:10:40;;;;;;;95.23;31.93;;;;;;;-2.90;100.00;100774.66;5116105;22;20203;-80
2022/01/16 04:13:08;;;;;;;93.73;31.07;;;;;;;-2.95;100.00;100774.84;5095130;22;21259;-77
2022/01/16 04:15:34;;;;;;;89.10;30.33;;;;;;;-2.93;100.00;100778.22;5100035;22;21219;-78
2022/01/16 04:18:05;;;;;;;92.80;31.70;;;;;;;-2.93;100.00;100785.19;5095648;22;20203;-80
2022/01/16 04:20:34;;;;;;;95.17;30.83;;;;;;;-2.89;100.00;100782.44;5100492;22;21168;-79
2022/01/16 04:23:02;;;;;;;102.53;31.27;;;;;;;-2.91;100.00;100778.19;5108035;22;20226;-80
2022/01/16 04:25:29;;;;;;;103.73;32.47;;;;;;;-2.81;100.00;100770.03;5085716;22;20202;-77
2022/01/16 04:27:56;;;;;;;99.77;32.50;;;;;;;-2.84;100.00;100777.06;5112282;22;20211;-78
2022/01/16 04:30:22;;;;;;;93.67;31.57;;;;;;;-2.82;100.00;100764.84;5083537;22;22886;-78
2022/01/16 04:32:49;;;;;;;90.93;31.23;;;;;;;-2.82;100.00;100767.47;5087750;22;20213;-80
2022/01/16 04:35:16;;;;;;;90.27;32.60;;;;;;;-2.98;100.00;100765.34;5108463;22;20215;-78
2022/01/16 04:37:44;;;;;;;97.57;31.70;;;;;;;-2.92;100.00;100763.47;5117129;22;20213;-80
2022/01/16 04:40:31;;;;;;;95.33;32.20;;;;;;;-2.99;100.00;100760.22;5107899;22;20216;-79
2022/01/16 04:45:42;;;;;;;99.13;31.70;;;;;;;-3.02;100.00;100755.97;5112597;22;21238;-79
2022/01/16 04:48:09;;;;;;;97.47;32.20;;;;;;;-2.87;100.00;100752.00;5130262;22;20199;-78
2022/01/16 04:50:36;;;;;;;89.70;31.70;;;;;;;-2.78;100.00;100758.66;5124541;22;20202;-78
2022/01/16 04:53:02;;;;;;;103.47;33.00;;;;;;;-2.77;100.00;100753.38;5117577;22;20240;-78
2022/01/16 04:55:29;;;;;;;100.53;31.30;;;;;;;-2.94;100.00;100747.88;5126130;22;20439;-80
2022/01/16 04:57:55;;;;;;;91.93;31.63;;;;;;;-3.03;100.00;100746.44;5111299;22;20205;-82
2022/01/16 05:00:22;;;;;;;104.23;32.63;;;;;;;-3.08;100.00;100744.91;5115109;22;20206;-78
2022/01/16 05:02:49;;;;;;;89.73;31.23;;;;;;;-3.08;100.00;100756.16;5096458;22;20281;-78
2022/01/16 05:05:15;;;;;;;111.43;33.17;;;;;;;-3.09;100.00;100751.88;5104596;22;20358;-79
2022/01/16 05:07:42;;;;;;;91.93;32.03;;;;;;;-3.09;100.00;100744.06;5122010;22;20218;-79
2022/01/16 05:10:08;;;;;;;101.63;32.77;;;;;;;-3.02;100.00;100732.53;5117872;22;20238;-77
2022/01/16 05:12:38;;;;;;;95.07;32.20;;;;;;;-2.76;100.00;100733.41;5119384;22;20743;-79
2022/01/16 05:17:51;;;;;;;100.57;30.63;;;;;;;-2.65;100.00;100722.59;5161704;22;23294;-79
2022/01/16 05:20:18;;;;;;;94.67;31.53;;;;;;;-2.65;99.12;100723.44;5140609;22;21607;-81
2022/01/16 05:22:45;;;;;;;102.30;32.57;;;;;;;-2.67;98.83;100727.88;5113750;22;20207;-79
2022/01/16 05:25:14;;;;;;;93.47;31.87;;;;;;;-2.67;98.99;100734.81;5158531;22;20206;-78
2022/01/16 05:27:40;;;;;;;82.97;29.87;;;;;;;-2.80;98.94;100718.78;5089140;22;20728;-81
2022/01/16 05:30:07;;;;;;;98.67;31.60;;;;;;;-2.88;99.89;100710.38;5130440;22;20509;-77
2022/01/16 05:32:34;;;;;;;97.30;31.80;;;;;;;-2.79;99.63;100712.66;5154421;22;20206;-78
2022/01/16 05:35:09;;;;;;;90.43;31.67;;;;;;;-2.71;98.94;100692.41;5116280;22;20266;-78
2022/01/16 05:37:35;;;;;;;90.80;32.33;;;;;;;-2.86;98.88;100695.53;5100050;22;20207;-79
2022/01/16 05:40:03;;;;;;;93.93;31.50;;;;;;;-2.90;99.73;100692.22;5141164;22;20267;-77
2022/01/16 05:42:32;;;;;;;98.53;32.33;;;;;;;-2.79;99.32;100690.09;5143451;22;20203;-79
2022/01/16 05:44:59;;;;;;;99.73;33.30;;;;;;;-2.80;98.27;100682.31;5084711;22;20286;-84
2022/01/16 05:47:25;;;;;;;89.60;29.73;;;;;;;-2.86;98.13;100682.53;5107316;22;20202;-79
2022/01/16 05:49:52;;;;;;;98.47;32.53;;;;;;;-2.94;97.97;100681.97;5118912;22;21743;-79
2022/01/16 05:52:38;;;;;;;92.63;32.80;;;;;;;-2.86;98.46;100682.53;5131829;22;21869;-79
2022/01/16 05:55:06;;;;;;;95.10;32.03;;;;;;;-2.86;97.81;100672.09;5126955;22;20679;-77
2022/01/16 05:57:33;;;;;;;97.47;32.83;;;;;;;-2.84;98.09;100670.31;5102884;22;21183;-77
2022/01/16 05:59:59;;;;;;;96.40;33.97;;;;;;;-3.06;99.15;100673.66;5089515;22;20203;-78
2022/01/16 06:02:26;;;;;;;101.10;32.57;;;;;;;-3.07;100.00;100682.34;5116756;22;22245;-77
2022/01/16 06:04:53;;;;;;;89.83;32.43;;;;;;;-3.13;100.00;100679.97;5106913;22;20211;-78
2022/01/16 06:07:19;;;;;;;90.03;31.70;;;;;;;-3.17;100.00;100673.16;5096093;22;22261;-78
2022/01/16 06:09:46;;;;;;;103.53;33.97;;;;;;;-3.18;100.00;100661.06;5113092;22;20263;-80
2022/01/16 06:12:13;;;;;;;102.50;34.07;;;;;;;-3.26;100.00;100656.09;5147272;22;20206;-78
2022/01/16 06:14:39;;;;;;;114.87;34.60;;;;;;;-3.22;100.00;100649.91;5112522;22;20202;-78
2022/01/16 06:17:06;;;;;;;104.23;35.07;;;;;;;-3.22;100.00;100654.25;5105112;22;20985;-77
2022/01/16 06:19:33;;;;;;;95.33;32.53;;;;;;;-3.23;100.00;100640.41;5097309;22;20998;-78
2022/01/16 06:22:00;;;;;;;122.90;36.30;;;;;;;-3.08;100.00;100644.22;5119418;22;21306;-77
2022/01/16 06:24:26;;;;;;;102.57;33.80;;;;;;;-2.92;99.91;100631.53;5129375;22;20365;-78
2022/01/16 06:26:53;;;;;;;107.03;34.77;;;;;;;-2.84;99.15;100626.88;5093438;22;20206;-75
2022/01/16 06:29:20;;;;;;;105.10;35.47;;;;;;;-2.73;98.76;100628.25;5126548;22;20603;-78
2022/01/16 06:31:46;;;;;;;96.87;32.57;;;;;;;-2.77;98.40;100627.50;5112834;22;21552;-77
2022/01/16 06:34:13;;;;;;;79.27;29.43;;;;;;;-2.80;97.47;100627.63;5112730;22;20215;-76
2022/01/16 06:36:40;;;;;;;82.47;30.03;;;;;;;-2.92;96.72;100617.66;5098253;22;20652;-79
2022/01/16 06:39:10;;;;;;;91.40;30.60;;;;;;;-2.87;96.60;100618.34;5103564;22;21956;-76
2022/01/16 06:41:38;;;;;;;80.17;30.17;;;;;;;-2.88;96.93;100617.50;5098691;22;20328;-77
2022/01/16 06:44:05;;;;;;;91.63;31.87;;;;;;;-2.88;97.28;100616.63;5093387;22;20220;-79
2022/01/16 06:46:32;;;;;;;83.43;30.13;;;;;;;-2.89;97.34;100615.78;5108534;22;20210;-76
2022/01/16 06:48:59;;;;;;;82.63;29.70;;;;;;;-2.94;97.38;100625.53;5133610;22;20616;-78
2022/01/16 06:51:25;;;;;;;91.03;31.37;;;;;;;-3.15;98.50;100631.50;5139762;22;20206;-78
2022/01/16 06:53:53;;;;;;;85.73;29.53;;;;;;;-3.02;99.28;100620.59;5112985;22;25644;-79
2022/01/16 06:56:20;;;;;;;87.77;29.37;;;;;;;-2.85;97.97;100626.97;5130913;22;23267;-76
2022/01/16 06:58:47;;;;;;;83.10;29.30;;;;;;;-2.81;97.44;100634.59;5099160;22;20635;-77
2022/01/16 07:01:13;;;;;;;83.40;29.87;;;;;;;-2.75;97.23;100630.91;5091635;22;20216;-77
2022/01/16 07:03:41;;;;;;;92.13;31.27;;;;;;;-2.67;96.91;100628.91;5121992;22;22183;-80
2022/01/16 07:06:07;;;;;;;98.73;31.80;;;;;;;-2.66;96.79;100624.53;5152450;22;20270;-76
2022/01/16 07:08:34;;;;;;;70.80;27.63;;;;;;;-2.59;96.75;100623.41;5108583;22;20501;-77
2022/01/16 07:11:01;;;;;;;73.10;28.00;;;;;;;-2.54;96.54;100624.06;5129031;22;23809;-76
2022/01/16 07:13:28;;;;;;;73.73;26.70;;;;;;;-2.55;96.48;100636.25;5136027;22;20206;-76
2022/01/16 07:15:55;;;;;;;71.37;26.57;;;;;;;-2.55;96.29;100636.25;5186081;22;20209;-79
2022/01/16 07:18:22;;;;;;;65.50;25.20;;;;;;;-2.56;96.50;100634.53;5206279;22;20198;-76
2022/01/16 07:20:49;;;;;;;70.50;26.17;;;;;;;-2.49;96.50;100639.53;5147594;22;21180;-77
2022/01/16 07:23:17;;;;;;;68.63;26.87;;;;;;;-2.41;96.43;100637.47;5117269;22;20236;-77
2022/01/16 07:25:43;;;;;;;67.20;24.70;;;;;;;-2.44;96.32;100633.22;5145887;22;20298;-78
2022/01/16 07:28:10;;;;;;;66.47;24.53;;;;;;;-2.36;95.94;100630.34;5137651;22;20217;-77
2022/01/16 07:30:38;;;;;;;74.73;26.57;;;;;;;-2.31;96.34;100624.97;5109673;22;22126;-76
2022/01/16 07:33:05;;;;;;;69.50;23.93;;;;;;;-2.32;95.75;100634.53;5153831;22;20207;-78
2022/01/16 07:35:35;;;;;;;64.93;25.00;;;;;;;-2.30;96.04;100613.63;5177484;22;20284;-78
2022/01/16 07:38:05;;;;;;;63.60;23.83;;;;;;;-2.26;96.35;100625.63;5142817;22;20211;-78
2022/01/16 07:40:35;;;;;;;68.53;24.50;;;;;;;-2.16;96.05;100621.75;5111711;22;21709;-76
2022/01/16 07:43:02;;;;;;;70.83;24.90;;;;;;;-2.14;95.88;100620.78;5134212;22;20612;-80
2022/01/16 07:45:29;;;;;;;74.63;24.80;;;;;;;-2.15;96.15;100618.25;5103390;22;20380;-78
2022/01/16 07:47:55;;;;;;;68.87;25.00;;;;;;;-2.19;95.73;100627.09;5146255;22;21505;-79
2022/01/16 07:50:23;;;;;;;65.37;22.60;;;;;;;-2.13;96.31;100629.47;5107316;22;20229;-80
2022/01/16 07:52:50;;;;;;;65.37;24.13;;;;;;;-2.10;96.04;100625.91;5106942;22;20295;-77
2022/01/16 07:55:18;;;;;;;74.57;24.87;;;;;;;-1.98;96.11;100621.03;5130161;22;20355;-78
2022/01/16 07:57:44;;;;;;;61.57;22.93;;;;;;;-1.98;95.56;100609.78;5121523;22;20203;-76
2022/01/16 08:00:29;;;;;;;73.67;24.47;;;;;;;-2.00;95.62;100612.44;5107001;22;20219;-78
2022/01/16 08:02:57;;;;;;;70.47;24.33;;;;;;;-2.06;95.78;100609.22;5091628;22;23671;-78
2022/01/16 08:05:24;;;;;;;66.40;22.80;;;;;;;-2.09;96.08;100611.94;5098701;22;20342;-77
2022/01/16 08:07:51;;;;;;;60.83;22.63;;;;;;;-2.00;96.45;100611.59;5094907;22;20207;-77
2022/01/16 08:10:18;;;;;;;64.33;22.50;;;;;;;-1.96;95.90;100602.75;5123430;22;20285;-76
2022/01/16 08:12:44;;;;;;;65.77;22.60;;;;;;;-1.86;95.98;100596.22;5084910;22;20204;-81
2022/01/16 08:15:11;;;;;;;70.33;23.37;;;;;;;-1.88;95.50;100603.25;5117149;22;20204;-79
2022/01/16 08:17:38;;;;;;;75.20;23.17;;;;;;;-1.87;95.15;100593.69;5139956;22;20673;-79
2022/01/16 08:20:08;;;;;;;80.80;22.90;;;;;;;-1.92;95.49;100593.84;5100322;22;21338;-78
2022/01/16 08:22:35;;;;;;;60.37;21.80;;;;;;;-1.89;95.65;100593.75;5096354;22;20204;-81
2022/01/16 08:25:04;;;;;;;62.53;21.50;;;;;;;-1.85;95.58;100589.25;5101555;22;20221;-77
2022/01/16 08:27:30;;;;;;;61.80;22.20;;;;;;;-1.86;95.95;100596.22;5118374;22;20200;-76
2022/01/16 08:30:09;;;;;;;69.27;21.80;;;;;;;-1.79;95.55;100594.22;5090523;22;20248;-77
2022/01/16 08:32:37;;;;;;;70.67;22.20;;;;;;;-1.74;95.42;100582.69;5128186;22;20421;-77
2022/01/16 08:35:04;;;;;;;61.57;20.50;;;;;;;-1.71;95.15;100577.34;5119594;22;22907;-78
2022/01/16 08:37:31;;;;;;;60.87;20.03;;;;;;;-1.72;95.28;100573.03;5136146;22;20202;-77
2022/01/16 08:39:58;;;;;;;57.77;21.10;;;;;;;-1.66;94.52;100571.94;5084811;22;20204;-78
2022/01/16 08:42:24;;;;;;;71.27;21.93;;;;;;;-1.72;95.00;100573.03;5117086;22;20200;-77
2022/01/16 08:44:51;;;;;;;59.33;20.43;;;;;;;-1.65;95.17;100570.19;5106044;22;20206;-78
2022/01/16 08:47:18;;;;;;;61.80;20.77;;;;;;;-1.62;95.05;100570.88;5143830;22;21588;-78
2022/01/16 08:49:45;;;;;;;63.50;20.97;;;;;;;-1.64;95.01;100566.66;5107877;22;20200;-79
2022/01/16 08:52:13;;;;;;;59.63;19.93;;;;;;;-1.69;95.32;100553.78;5099375;22;20318;-76
2022/01/16 08:54:40;;;;;;;61.50;20.63;;;;;;;-1.62;95.51;100555.22;5074289;22;20263;-76
2022/01/16 08:57:07;;;;;;;63.67;21.20;;;;;;;-1.62;95.25;100549.19;5119345;22;20203;-78
2022/01/16 08:59:33;;;;;;;62.67;20.57;;;;;;;-1.59;95.16;100544.69;5090392;22;20285;-75
2022/01/16 09:02:00;;;;;;;55.07;19.77;;;;;;;-1.49;95.04;100529.50;5107136;22;21169;-77
2022/01/16 09:04:27;;;;;;;55.90;20.77;;;;;;;-1.38;94.78;100539.44;5108605;22;20522;-77
2022/01/16 09:06:54;;;;;;;56.40;20.00;;;;;;;-1.34;94.36;100528.81;5114526;22;21273;-76
2022/01/16 09:09:20;;;;;;;52.47;19.30;;;;;;;-1.33;94.21;100529.69;5114698;22;20293;-74
2022/01/16 09:11:47;;;;;;;71.13;20.63;;;;;;;-1.28;94.38;100528.53;5130491;22;20279;-79
2022/01/16 09:14:15;;;;;;;56.67;19.70;;;;;;;-1.24;94.12;100524.06;5123360;22;20281;-79
2022/01/16 09:16:41;;;;;;;55.60;19.60;;;;;;;-1.14;93.28;100521.88;5078116;22;20689;-79
2022/01/16 09:19:08;;;;;;;55.10;19.70;;;;;;;-1.06;92.76;100519.75;5127349;22;22641;-78
2022/01/16 09:21:36;;;;;;;53.30;19.13;;;;;;;-1.07;92.99;100526.75;5093911;22;20202;-77
2022/01/16 09:24:03;;;;;;;62.13;19.50;;;;;;;-1.00;92.71;100516.88;5093337;22;20209;-78
2022/01/16 09:26:30;;;;;;;57.80;19.93;;;;;;;-1.02;92.56;100502.19;5086282;22;20275;-78
2022/01/16 09:28:56;;;;;;;59.87;19.57;;;;;;;-1.01;92.44;100504.72;5129880;22;20202;-77
2022/01/16 09:31:23;;;;;;;57.40;20.10;;;;;;;-0.95;92.08;100499.22;5143458;22;20268;-76
2022/01/16 09:33:50;;;;;;;55.93;19.10;;;;;;;-1.03;92.42;100492.66;5092516;22;20278;-74
2022/01/16 09:36:16;;;;;;;55.40;20.87;;;;;;;-0.90;91.88;100499.03;5113831;22;23467;-76
2022/01/16 09:38:46;;;;;;;63.43;19.47;;;;;;;-0.88;92.34;100484.97;5119640;22;21666;-79
2022/01/16 09:41:14;;;;;;;58.43;19.90;;;;;;;-0.79;92.02;100475.03;5149532;22;22889;-79
2022/01/16 09:43:41;;;;;;;60.20;18.90;;;;;;;-0.71;91.75;100476.34;5134927;22;20209;-78
2022/01/16 09:46:08;;;;;;;57.60;19.93;;;;;;;-0.74;91.43;100480.88;5076634;22;21501;-76
2022/01/16 09:48:34;;;;;;;55.77;19.43;;;;;;;-0.66;91.76;100490.06;5120391;22;20218;-76
2022/01/16 09:51:01;;;;;;;59.33;20.47;;;;;;;-0.66;91.14;100481.34;5116552;22;20210;-77
2022/01/16 09:53:28;;;;;;;56.83;21.10;;;;;;;-0.66;91.02;100468.28;5108643;22;21096;-77
2022/01/16 09:55:55;;;;;;;52.63;18.87;;;;;;;-0.62;91.02;100471.59;5100359;22;21269;-76
2022/01/16 09:58:22;;;;;;;66.33;22.27;;;;;;;-0.58;90.70;100463.56;5139718;22;20207;-78
2022/01/16 10:00:49;;;;;;;56.00;19.70;;;;;;;-0.59;91.09;100464.44;5096450;22;22141;-76
2022/01/16 10:03:51;;;;;;;55.80;21.27;;;;;;;-0.55;90.98;100458.16;5144019;22;20203;-82
2022/01/16 10:06:21;;;;;;;53.13;19.77;;;;;;;-0.57;91.03;100457.38;5093378;23;20282;-79
2022/01/16 10:08:50;;;;;;;58.10;20.03;;;;;;;-0.51;90.81;100456.28;5099266;22;22545;-82
2022/01/16 10:11:26;;;;;;;60.37;21.30;;;;;;;-0.52;90.57;100437.09;5122136;22;20221;-77
2022/01/16 10:14:13;;;;;;;59.07;19.50;;;;;;;-0.60;91.24;100426.19;5103254;22;20283;-78
2022/01/16 10:16:42;;;;;;;59.00;21.80;;;;;;;-0.62;91.42;100417.56;5123701;22;20206;-83
2022/01/16 10:19:20;;;;;;;60.77;21.67;;;;;;;-0.52;91.43;100403.13;5122930;22;20207;-78
2022/01/16 10:21:48;;;;;;;60.10;21.17;;;;;;;-0.54;91.57;100394.53;5122979;22;20218;-75
2022/01/16 10:24:23;;;;;;;73.67;21.40;;;;;;;-0.43;91.42;100392.22;5146904;22;25019;-78
2022/01/16 10:27:11;;;;;;;66.77;21.87;;;;;;;-0.37;91.09;100400.69;5112875;22;21723;-82
2022/01/16 10:29:52;;;;;;;59.40;22.00;;;;;;;-0.32;90.96;100403.94;5148645;22;21153;-80
2022/01/16 10:32:26;;;;;;;59.73;20.83;;;;;;;-0.31;90.21;100400.38;5078828;22;20225;-79
2022/01/16 10:35:07;;;;;;;64.70;21.17;;;;;;;-0.32;90.89;100402.16;5112228;22;20273;-79
2022/01/16 10:37:33;;;;;;;54.30;20.07;;;;;;;-0.24;91.28;100407.00;5114344;22;20652;-78
2022/01/16 10:40:09;;;;;;;71.17;21.63;;;;;;;-0.09;90.43;100403.63;5096253;22;20541;-78
2022/01/16 10:42:37;;;;;;;59.13;22.10;;;;;;;-0.07;89.81;100401.78;5116717;22;20207;-78
2022/01/16 10:45:13;;;;;;;57.63;20.43;;;;;;;-0.13;89.95;100388.16;5093680;22;20202;-78
2022/01/16 10:47:47;;;;;;;71.27;23.40;;;;;;;-0.11;90.02;100392.38;5143238;22;20206;-78
2022/01/16 10:50:36;;;;;;;60.90;20.73;;;;;;;-0.11;90.11;100399.38;5095399;22;21640;-79
2022/01/16 10:53:07;;;;;;;60.07;21.97;;;;;;;-0.15;90.20;100385.59;5124027;22;21336;-78
2022/01/16 10:55:38;;;;;;;64.37;22.33;;;;;;;-0.01;90.56;100385.75;5116547;22;20273;-76
2022/01/16 10:58:13;;;;;;;58.97;21.70;;;;;;;0.02;89.72;100376.88;5119870;22;21178;-79
2022/01/16 11:00:43;;;;;;;70.20;21.90;;;;;;;0.10;89.61;100369.50;5095323;22;20280;-81
2022/01/16 11:03:12;;;;;;;66.60;21.70;;;;;;;0.15;89.21;100356.19;5135445;22;20205;-79
2022/01/16 11:05:43;;;;;;;60.13;20.83;;;;;;;0.11;89.73;100358.09;5129641;22;20211;-78
2022/01/16 11:08:13;;;;;;;53.50;20.63;;;;;;;0.08;88.95;100360.06;5112516;22;20681;-79
2022/01/16 11:10:42;;;;;;;64.50;21.87;;;;;;;0.12;89.38;100356.34;5093420;22;20204;-76
2022/01/16 11:13:17;;;;;;;70.23;21.97;;;;;;;0.12;89.49;100351.97;5128186;22;20205;-77
2022/01/16 11:15:48;;;;;;;56.80;19.93;;;;;;;0.19;89.73;100342.03;5120931;22;20207;-79
2022/01/16 11:18:15;;;;;;;61.93;20.77;;;;;;;0.19;89.43;100336.78;5149238;22;20705;-77
2022/01/16 11:20:51;;;;;;;62.33;20.37;;;;;;;0.12;89.63;100336.25;5114134;22;20210;-78
2022/01/16 11:23:33;;;;;;;55.00;20.83;;;;;;;0.13;89.51;100329.25;5084579;23;20304;-80
2022/01/16 11:26:04;;;;;;;56.43;20.07;;;;;;;0.19;89.56;100328.94;5111133;22;20212;-78
2022/01/16 11:28:31;;;;;;;62.53;22.33;;;;;;;0.24;89.11;100321.69;5109078;22;20234;-79
2022/01/16 11:31:00;;;;;;;60.60;20.53;;;;;;;0.22;89.23;100317.47;5085249;22;20202;-79
2022/01/16 11:33:28;;;;;;;63.97;21.80;;;;;;;0.19;89.56;100321.94;5136512;22;20544;-80
2022/01/16 11:35:57;;;;;;;60.90;22.60;;;;;;;0.14;90.00;100305.63;5059837;22;20212;-80
2022/01/16 11:38:31;;;;;;;62.93;22.23;;;;;;;0.14;89.87;100315.22;5084931;22;23500;-82
2022/01/16 11:41:11;;;;;;;74.97;22.80;;;;;;;0.23;89.91;100314.75;5127494;22;20292;-77
2022/01/16 11:43:39;;;;;;;63.23;22.90;;;;;;;0.29;89.90;100300.50;5079643;22;20204;-80
2022/01/16 11:46:07;;;;;;;76.23;23.67;;;;;;;0.30;90.30;100300.41;5074047;22;25062;-82
2022/01/16 11:48:35;;;;;;;71.33;22.30;;;;;;;0.24;90.28;100294.69;5063614;22;20204;-80
2022/01/16 11:51:39;;;;;;;64.53;24.03;;;;;;;0.25;90.04;100284.09;5084357;22;20595;-79
2022/01/16 11:54:28;;;;;;;67.90;24.30;;;;;;;0.19;90.65;100280.06;5082265;22;20269;-80
2022/01/16 11:56:57;;;;;;;72.33;23.93;;;;;;;0.22;91.00;100279.03;5138477;22;20773;-79
2022/01/16 11:59:25;;;;;;;72.43;24.53;;;;;;;0.16;91.41;100268.91;5132969;22;21924;-79